sensor_id;sensor_type;location;lat;lon;timestamp;P1;durP1;ratioP1;P2;durP2;ratioP2
6392;SDS011;3229;42.674;23.282;2023-08-12T00:00:09;3.37;;;3.07;;
6392;SDS011;3229;42.674;23.282;2023-08-12T00:02:37;4.17;;;3.00;;
6392;SDS011;3229;42.674;23.282;2023-08-12T00:05:04;3.07;;;2.77;;
6392;SDS011;3229;42.674;23.282;2023-08-12T00:07:32;4.37;;;3.10;;
6392;SDS011;3229;42.674;23.282;2023-08-12T00:10:00;2.87;;;2.67;;
6392;SDS011;3229;42.674;23.282;2023-08-12T00:12:29;4.47;;;2.73;;
6392;SDS011;3229;42.674;23.282;2023-08-12T00:14:56;4.20;;;3.13;;
6392;SDS011;3229;42.674;23.282;2023-08-12T00:17:23;3.57;;;2.93;;
6392;SDS011;3229;42.674;23.282;2023-08-12T00:19:49;2.80;;;2.60;;
6392;SDS011;3229;42.674;23.282;2023-08-12T00:22:16;3.40;;;3.17;;
6392;SDS011;3229;42.674;23.282;2023-08-12T00:24:43;2.77;;;2.57;;
6392;SDS011;3229;42.674;23.282;2023-08-12T00:27:12;3.83;;;2.93;;
6392;SDS011;3229;42.674;23.282;2023-08-12T00:29:38;4.17;;;2.80;;
6392;SDS011;3229;42.674;23.282;2023-08-12T00:32:05;3.30;;;3.00;;
6392;SDS011;3229;42.674;23.282;2023-08-12T00:34:32;3.63;;;3.10;;
6392;SDS011;3229;42.674;23.282;2023-08-12T00:36:59;3.80;;;3.20;;
6392;SDS011;3229;42.674;23.282;2023-08-12T00:39:26;3.27;;;2.97;;
6392;SDS011;3229;42.674;23.282;2023-08-12T00:41:52;4.73;;;2.60;;
6392;SDS011;3229;42.674;23.282;2023-08-12T00:44:21;3.30;;;3.00;;
6392;SDS011;3229;42.674;23.282;2023-08-12T00:46:47;4.40;;;3.10;;
6392;SDS011;3229;42.674;23.282;2023-08-12T00:49:15;3.53;;;3.23;;
6392;SDS011;3229;42.674;23.282;2023-08-12T00:51:42;4.33;;;3.10;;
6392;SDS011;3229;42.674;23.282;2023-08-12T00:54:13;2.93;;;2.60;;
6392;SDS011;3229;42.674;23.282;2023-08-12T00:56:41;3.33;;;3.03;;
6392;SDS011;3229;42.674;23.282;2023-08-12T00:59:08;3.17;;;2.90;;
6392;SDS011;3229;42.674;23.282;2023-08-12T01:01:38;3.90;;;3.27;;
6392;SDS011;3229;42.674;23.282;2023-08-12T01:04:07;3.13;;;2.83;;
6392;SDS011;3229;42.674;23.282;2023-08-12T01:06:33;3.10;;;2.80;;
6392;SDS011;3229;42.674;23.282;2023-08-12T01:09:00;3.73;;;3.30;;
6392;SDS011;3229;42.674;23.282;2023-08-12T01:11:32;3.43;;;3.10;;
6392;SDS011;3229;42.674;23.282;2023-08-12T01:14:06;3.17;;;2.87;;
6392;SDS011;3229;42.674;23.282;2023-08-12T01:16:42;3.37;;;2.77;;
6392;SDS011;3229;42.674;23.282;2023-08-12T01:19:13;2.90;;;2.70;;
6392;SDS011;3229;42.674;23.282;2023-08-12T01:21:49;3.73;;;3.00;;
6392;SDS011;3229;42.674;23.282;2023-08-12T01:24:24;3.13;;;2.80;;
6392;SDS011;3229;42.674;23.282;2023-08-12T01:26:51;2.97;;;2.77;;
6392;SDS011;3229;42.674;23.282;2023-08-12T01:29:18;3.47;;;2.93;;
6392;SDS011;3229;42.674;23.282;2023-08-12T01:31:47;3.40;;;3.10;;
6392;SDS011;3229;42.674;23.282;2023-08-12T01:34:19;3.30;;;3.00;;
6392;SDS011;3229;42.674;23.282;2023-08-12T01:36:52;5.53;;;2.90;;
6392;SDS011;3229;42.674;23.282;2023-08-12T01:39:24;4.20;;;3.30;;
6392;SDS011;3229;42.674;23.282;2023-08-12T01:41:53;2.87;;;2.60;;
6392;SDS011;3229;42.674;23.282;2023-08-12T01:44:21;2.97;;;2.70;;
6392;SDS011;3229;42.674;23.282;2023-08-12T01:46:48;3.00;;;2.80;;
6392;SDS011;3229;42.674;23.282;2023-08-12T01:49:16;2.97;;;2.77;;
6392;SDS011;3229;42.674;23.282;2023-08-12T01:51:42;3.30;;;3.00;;
6392;SDS011;3229;42.674;23.282;2023-08-12T01:54:09;4.53;;;2.80;;
6392;SDS011;3229;42.674;23.282;2023-08-12T01:56:38;4.33;;;3.03;;
6392;SDS011;3229;42.674;23.282;2023-08-12T01:59:04;2.70;;;2.50;;
6392;SDS011;3229;42.674;23.282;2023-08-12T02:01:31;2.77;;;2.57;;
6392;SDS011;3229;42.674;23.282;2023-08-12T02:03:58;4.23;;;3.20;;
6392;SDS011;3229;42.674;23.282;2023-08-12T02:06:24;5.80;;;3.00;;
6392;SDS011;3229;42.674;23.282;2023-08-12T02:08:51;3.30;;;2.97;;
6392;SDS011;3229;42.674;23.282;2023-08-12T02:11:18;3.10;;;2.90;;
6392;SDS011;3229;42.674;23.282;2023-08-12T02:13:46;3.07;;;2.53;;
6392;SDS011;3229;42.674;23.282;2023-08-12T02:16:13;3.37;;;2.80;;
6392;SDS011;3229;42.674;23.282;2023-08-12T02:18:40;2.90;;;2.63;;
6392;SDS011;3229;42.674;23.282;2023-08-12T02:21:06;4.00;;;2.83;;
6392;SDS011;3229;42.674;23.282;2023-08-12T02:23:33;2.90;;;2.53;;
6392;SDS011;3229;42.674;23.282;2023-08-12T02:26:00;3.40;;;3.10;;
6392;SDS011;3229;42.674;23.282;2023-08-12T02:28:28;5.50;;;2.70;;
6392;SDS011;3229;42.674;23.282;2023-08-12T02:30:56;4.40;;;3.10;;
6392;SDS011;3229;42.674;23.282;2023-08-12T02:33:23;3.43;;;3.10;;
6392;SDS011;3229;42.674;23.282;2023-08-12T02:35:52;4.90;;;3.20;;
6392;SDS011;3229;42.674;23.282;2023-08-12T02:38:19;3.57;;;2.70;;
6392;SDS011;3229;42.674;23.282;2023-08-12T02:40:47;6.57;;;2.87;;
6392;SDS011;3229;42.674;23.282;2023-08-12T02:43:14;5.10;;;2.93;;
6392;SDS011;3229;42.674;23.282;2023-08-12T02:45:41;2.77;;;2.57;;
6392;SDS011;3229;42.674;23.282;2023-08-12T02:48:09;3.17;;;2.93;;
6392;SDS011;3229;42.674;23.282;2023-08-12T02:50:36;3.97;;;2.47;;
6392;SDS011;3229;42.674;23.282;2023-08-12T02:53:03;3.43;;;2.53;;
6392;SDS011;3229;42.674;23.282;2023-08-12T02:55:31;4.90;;;2.90;;
6392;SDS011;3229;42.674;23.282;2023-08-12T02:57:58;3.03;;;2.73;;
6392;SDS011;3229;42.674;23.282;2023-08-12T03:00:24;3.63;;;3.00;;
6392;SDS011;3229;42.674;23.282;2023-08-12T03:02:52;3.17;;;2.87;;
6392;SDS011;3229;42.674;23.282;2023-08-12T03:05:21;2.93;;;2.70;;
6392;SDS011;3229;42.674;23.282;2023-08-12T03:07:48;4.37;;;2.40;;
6392;SDS011;3229;42.674;23.282;2023-08-12T03:10:15;4.03;;;2.83;;
6392;SDS011;3229;42.674;23.282;2023-08-12T03:12:41;5.83;;;2.70;;
6392;SDS011;3229;42.674;23.282;2023-08-12T03:15:08;3.40;;;3.00;;
6392;SDS011;3229;42.674;23.282;2023-08-12T03:17:36;6.00;;;2.90;;
6392;SDS011;3229;42.674;23.282;2023-08-12T03:20:04;3.13;;;2.50;;
6392;SDS011;3229;42.674;23.282;2023-08-12T03:22:35;7.80;;;3.33;;
6392;SDS011;3229;42.674;23.282;2023-08-12T03:25:02;2.67;;;2.47;;
6392;SDS011;3229;42.674;23.282;2023-08-12T03:27:29;3.23;;;2.93;;
6392;SDS011;3229;42.674;23.282;2023-08-12T03:29:56;8.43;;;3.00;;
6392;SDS011;3229;42.674;23.282;2023-08-12T03:32:23;6.50;;;3.20;;
6392;SDS011;3229;42.674;23.282;2023-08-12T03:34:50;3.13;;;2.90;;
6392;SDS011;3229;42.674;23.282;2023-08-12T03:37:17;2.83;;;2.63;;
6392;SDS011;3229;42.674;23.282;2023-08-12T03:39:46;3.00;;;2.70;;
6392;SDS011;3229;42.674;23.282;2023-08-12T03:42:13;3.00;;;2.80;;
6392;SDS011;3229;42.674;23.282;2023-08-12T03:44:40;3.80;;;2.97;;
6392;SDS011;3229;42.674;23.282;2023-08-12T03:47:07;3.30;;;3.00;;
6392;SDS011;3229;42.674;23.282;2023-08-12T03:49:34;6.30;;;2.80;;
6392;SDS011;3229;42.674;23.282;2023-08-12T03:52:00;3.40;;;3.10;;
6392;SDS011;3229;42.674;23.282;2023-08-12T03:54:28;3.10;;;2.80;;
6392;SDS011;3229;42.674;23.282;2023-08-12T03:56:56;3.67;;;3.37;;
6392;SDS011;3229;42.674;23.282;2023-08-12T03:59:23;3.67;;;2.63;;
6392;SDS011;3229;42.674;23.282;2023-08-12T04:01:49;5.30;;;3.40;;
6392;SDS011;3229;42.674;23.282;2023-08-12T04:04:16;3.20;;;2.67;;
6392;SDS011;3229;42.674;23.282;2023-08-12T04:06:43;4.77;;;3.27;;
6392;SDS011;3229;42.674;23.282;2023-08-12T04:09:10;3.37;;;2.93;;
6392;SDS011;3229;42.674;23.282;2023-08-12T04:11:36;3.10;;;2.80;;
6392;SDS011;3229;42.674;23.282;2023-08-12T04:14:05;3.90;;;3.23;;
6392;SDS011;3229;42.674;23.282;2023-08-12T04:16:31;5.50;;;2.90;;
6392;SDS011;3229;42.674;23.282;2023-08-12T04:18:58;3.47;;;3.17;;
6392;SDS011;3229;42.674;23.282;2023-08-12T04:21:25;3.53;;;3.00;;
6392;SDS011;3229;42.674;23.282;2023-08-12T04:23:52;2.83;;;2.53;;
6392;SDS011;3229;42.674;23.282;2023-08-12T04:26:18;3.30;;;3.00;;
6392;SDS011;3229;42.674;23.282;2023-08-12T04:28:45;5.77;;;3.40;;
6392;SDS011;3229;42.674;23.282;2023-08-12T04:31:13;4.13;;;2.73;;
6392;SDS011;3229;42.674;23.282;2023-08-12T04:33:40;3.33;;;2.87;;
6392;SDS011;3229;42.674;23.282;2023-08-12T04:36:07;6.97;;;3.30;;
6392;SDS011;3229;42.674;23.282;2023-08-12T04:38:34;4.53;;;3.40;;
6392;SDS011;3229;42.674;23.282;2023-08-12T04:41:01;5.37;;;3.33;;
6392;SDS011;3229;42.674;23.282;2023-08-12T04:43:28;4.20;;;3.20;;
6392;SDS011;3229;42.674;23.282;2023-08-12T04:45:55;6.10;;;3.30;;
6392;SDS011;3229;42.674;23.282;2023-08-12T04:48:23;6.30;;;3.20;;
6392;SDS011;3229;42.674;23.282;2023-08-12T04:50:50;3.90;;;3.10;;
6392;SDS011;3229;42.674;23.282;2023-08-12T04:53:17;4.73;;;3.37;;
6392;SDS011;3229;42.674;23.282;2023-08-12T04:55:43;4.60;;;3.53;;
6392;SDS011;3229;42.674;23.282;2023-08-12T04:58:10;8.70;;;3.00;;
6392;SDS011;3229;42.674;23.282;2023-08-12T05:00:37;4.53;;;3.00;;
6392;SDS011;3229;42.674;23.282;2023-08-12T05:03:04;4.63;;;3.37;;
6392;SDS011;3229;42.674;23.282;2023-08-12T05:05:32;6.20;;;3.47;;
6392;SDS011;3229;42.674;23.282;2023-08-12T05:07:59;5.37;;;3.53;;
6392;SDS011;3229;42.674;23.282;2023-08-12T05:10:25;4.70;;;3.38;;
6392;SDS011;3229;42.674;23.282;2023-08-12T05:12:52;6.72;;;3.45;;
6392;SDS011;3229;42.674;23.282;2023-08-12T05:15:19;3.67;;;3.38;;
6392;SDS011;3229;42.674;23.282;2023-08-12T05:17:46;3.65;;;2.50;;
6392;SDS011;3229;42.674;23.282;2023-08-12T05:20:13;6.40;;;3.08;;
6392;SDS011;3229;42.674;23.282;2023-08-12T05:22:41;4.60;;;3.35;;
6392;SDS011;3229;42.674;23.282;2023-08-12T05:25:08;8.68;;;3.72;;
6392;SDS011;3229;42.674;23.282;2023-08-12T05:27:35;4.13;;;3.58;;
6392;SDS011;3229;42.674;23.282;2023-08-12T05:30:02;5.38;;;3.58;;
6392;SDS011;3229;42.674;23.282;2023-08-12T05:32:29;4.13;;;3.27;;
6392;SDS011;3229;42.674;23.282;2023-08-12T05:34:56;7.05;;;3.67;;
6392;SDS011;3229;42.674;23.282;2023-08-12T05:37:22;7.72;;;3.88;;
6392;SDS011;3229;42.674;23.282;2023-08-12T05:39:51;5.63;;;3.35;;
6392;SDS011;3229;42.674;23.282;2023-08-12T05:42:17;6.05;;;3.22;;
6392;SDS011;3229;42.674;23.282;2023-08-12T05:44:44;4.43;;;3.20;;
6392;SDS011;3229;42.674;23.282;2023-08-12T05:47:11;6.25;;;3.45;;
6392;SDS011;3229;42.674;23.282;2023-08-12T05:49:38;8.20;;;3.78;;
6392;SDS011;3229;42.674;23.282;2023-08-12T05:52:04;6.43;;;3.00;;
6392;SDS011;3229;42.674;23.282;2023-08-12T05:54:31;3.22;;;2.63;;
6392;SDS011;3229;42.674;23.282;2023-08-12T05:56:59;7.10;;;3.08;;
6392;SDS011;3229;42.674;23.282;2023-08-12T05:59:26;3.20;;;2.78;;
6392;SDS011;3229;42.674;23.282;2023-08-12T06:01:53;3.10;;;2.80;;
6392;SDS011;3229;42.674;23.282;2023-08-12T06:04:20;4.22;;;2.83;;
6392;SDS011;3229;42.674;23.282;2023-08-12T06:06:47;3.28;;;2.47;;
6392;SDS011;3229;42.674;23.282;2023-08-12T06:09:13;3.15;;;2.75;;
6392;SDS011;3229;42.674;23.282;2023-08-12T06:11:40;2.97;;;2.25;;
6392;SDS011;3229;42.674;23.282;2023-08-12T06:14:08;2.75;;;2.55;;
6392;SDS011;3229;42.674;23.282;2023-08-12T06:16:35;3.67;;;2.70;;
6392;SDS011;3229;42.674;23.282;2023-08-12T06:19:02;2.80;;;2.60;;
6392;SDS011;3229;42.674;23.282;2023-08-12T06:21:29;2.80;;;2.40;;
6392;SDS011;3229;42.674;23.282;2023-08-12T06:23:56;6.68;;;2.42;;
6392;SDS011;3229;42.674;23.282;2023-08-12T06:26:22;3.63;;;2.67;;
6392;SDS011;3229;42.674;23.282;2023-08-12T06:28:49;2.80;;;2.47;;
6392;SDS011;3229;42.674;23.282;2023-08-12T06:31:17;4.68;;;3.03;;
6392;SDS011;3229;42.674;23.282;2023-08-12T06:33:44;2.97;;;2.47;;
6392;SDS011;3229;42.674;23.282;2023-08-12T06:36:11;3.13;;;2.33;;
6392;SDS011;3229;42.674;23.282;2023-08-12T06:38:38;4.85;;;2.63;;
6392;SDS011;3229;42.674;23.282;2023-08-12T06:41:04;4.65;;;2.40;;
6392;SDS011;3229;42.674;23.282;2023-08-12T06:43:31;4.05;;;2.85;;
6392;SDS011;3229;42.674;23.282;2023-08-12T06:45:58;5.07;;;2.58;;
6392;SDS011;3229;42.674;23.282;2023-08-12T06:48:26;3.55;;;2.72;;
6392;SDS011;3229;42.674;23.282;2023-08-12T06:50:53;3.28;;;2.40;;
6392;SDS011;3229;42.674;23.282;2023-08-12T06:53:21;2.65;;;2.40;;
6392;SDS011;3229;42.674;23.282;2023-08-12T06:55:48;3.10;;;2.47;;
6392;SDS011;3229;42.674;23.282;2023-08-12T06:58:15;2.83;;;2.45;;
6392;SDS011;3229;42.674;23.282;2023-08-12T07:00:41;3.97;;;2.42;;
6392;SDS011;3229;42.674;23.282;2023-08-12T07:03:08;3.58;;;2.70;;
6392;SDS011;3229;42.674;23.282;2023-08-12T07:05:36;3.00;;;2.60;;
6392;SDS011;3229;42.674;23.282;2023-08-12T07:08:03;4.40;;;3.00;;
6392;SDS011;3229;42.674;23.282;2023-08-12T07:10:32;8.60;;;2.60;;
6392;SDS011;3229;42.674;23.282;2023-08-12T07:13:02;4.10;;;2.88;;
6392;SDS011;3229;42.674;23.282;2023-08-12T07:15:29;3.65;;;2.80;;
6392;SDS011;3229;42.674;23.282;2023-08-12T07:17:56;4.78;;;2.58;;
6392;SDS011;3229;42.674;23.282;2023-08-12T07:20:23;5.03;;;3.00;;
6392;SDS011;3229;42.674;23.282;2023-08-12T07:22:52;3.22;;;2.75;;
6392;SDS011;3229;42.674;23.282;2023-08-12T07:25:18;3.33;;;2.63;;
6392;SDS011;3229;42.674;23.282;2023-08-12T07:27:45;4.45;;;2.65;;
6392;SDS011;3229;42.674;23.282;2023-08-12T07:30:12;2.75;;;2.55;;
6392;SDS011;3229;42.674;23.282;2023-08-12T07:32:39;2.88;;;2.67;;
6392;SDS011;3229;42.674;23.282;2023-08-12T07:35:07;3.88;;;2.53;;
6392;SDS011;3229;42.674;23.282;2023-08-12T07:37:34;2.80;;;2.40;;
6392;SDS011;3229;42.674;23.282;2023-08-12T07:40:03;7.80;;;2.85;;
6392;SDS011;3229;42.674;23.282;2023-08-12T07:42:30;5.45;;;2.33;;
6392;SDS011;3229;42.674;23.282;2023-08-12T07:44:57;7.90;;;2.45;;
6392;SDS011;3229;42.674;23.282;2023-08-12T07:47:24;2.50;;;2.30;;
6392;SDS011;3229;42.674;23.282;2023-08-12T07:49:51;2.90;;;2.70;;
6392;SDS011;3229;42.674;23.282;2023-08-12T07:52:17;3.30;;;2.35;;
6392;SDS011;3229;42.674;23.282;2023-08-12T07:54:44;5.47;;;3.28;;
6392;SDS011;3229;42.674;23.282;2023-08-12T07:57:12;3.33;;;2.78;;
6392;SDS011;3229;42.674;23.282;2023-08-12T07:59:39;4.72;;;2.70;;
6392;SDS011;3229;42.674;23.282;2023-08-12T08:02:06;8.10;;;2.55;;
6392;SDS011;3229;42.674;23.282;2023-08-12T08:04:33;6.10;;;3.45;;
6392;SDS011;3229;42.674;23.282;2023-08-12T08:07:00;3.33;;;2.45;;
6392;SDS011;3229;42.674;23.282;2023-08-12T08:09:30;5.43;;;2.85;;
6392;SDS011;3229;42.674;23.282;2023-08-12T08:11:58;3.78;;;3.20;;
6392;SDS011;3229;42.674;23.282;2023-08-12T08:14:27;6.28;;;2.80;;
6392;SDS011;3229;42.674;23.282;2023-08-12T08:16:54;4.65;;;2.60;;
6392;SDS011;3229;42.674;23.282;2023-08-12T08:19:22;7.05;;;2.63;;
6392;SDS011;3229;42.674;23.282;2023-08-12T08:21:49;5.20;;;3.55;;
6392;SDS011;3229;42.674;23.282;2023-08-12T08:24:16;3.33;;;2.40;;
6392;SDS011;3229;42.674;23.282;2023-08-12T08:26:42;3.53;;;2.50;;
6392;SDS011;3229;42.674;23.282;2023-08-12T08:29:10;5.05;;;2.78;;
6392;SDS011;3229;42.674;23.282;2023-08-12T08:31:38;3.30;;;2.35;;
6392;SDS011;3229;42.674;23.282;2023-08-12T08:34:05;3.75;;;2.70;;
6392;SDS011;3229;42.674;23.282;2023-08-12T08:36:32;3.17;;;2.70;;
6392;SDS011;3229;42.674;23.282;2023-08-12T08:38:59;2.80;;;2.50;;
6392;SDS011;3229;42.674;23.282;2023-08-12T08:41:26;3.92;;;2.45;;
6392;SDS011;3229;42.674;23.282;2023-08-12T08:43:56;3.22;;;2.50;;
6392;SDS011;3229;42.674;23.282;2023-08-12T08:46:28;3.60;;;2.75;;
6392;SDS011;3229;42.674;23.282;2023-08-12T08:48:57;7.32;;;2.97;;
6392;SDS011;3229;42.674;23.282;2023-08-12T08:51:25;2.83;;;2.30;;
6392;SDS011;3229;42.674;23.282;2023-08-12T08:53:52;3.38;;;2.47;;
6392;SDS011;3229;42.674;23.282;2023-08-12T08:56:20;8.52;;;2.70;;
6392;SDS011;3229;42.674;23.282;2023-08-12T08:58:48;2.92;;;2.72;;
6392;SDS011;3229;42.674;23.282;2023-08-12T09:01:15;2.83;;;2.63;;
6392;SDS011;3229;42.674;23.282;2023-08-12T09:03:47;2.95;;;2.47;;
6392;SDS011;3229;42.674;23.282;2023-08-12T09:06:17;3.22;;;2.20;;
6392;SDS011;3229;42.674;23.282;2023-08-12T09:08:45;2.60;;;2.30;;
6392;SDS011;3229;42.674;23.282;2023-08-12T09:11:13;2.67;;;2.47;;
6392;SDS011;3229;42.674;23.282;2023-08-12T09:13:43;6.70;;;2.50;;
6392;SDS011;3229;42.674;23.282;2023-08-12T09:16:10;4.80;;;3.00;;
6392;SDS011;3229;42.674;23.282;2023-08-12T09:18:37;2.78;;;2.53;;
6392;SDS011;3229;42.674;23.282;2023-08-12T09:21:04;4.15;;;2.75;;
6392;SDS011;3229;42.674;23.282;2023-08-12T09:23:35;5.25;;;3.92;;
6392;SDS011;3229;42.674;23.282;2023-08-12T09:26:03;3.08;;;2.72;;
6392;SDS011;3229;42.674;23.282;2023-08-12T09:28:38;3.97;;;2.72;;
6392;SDS011;3229;42.674;23.282;2023-08-12T09:31:05;3.00;;;2.67;;
6392;SDS011;3229;42.674;23.282;2023-08-12T09:33:32;4.60;;;2.08;;
6392;SDS011;3229;42.674;23.282;2023-08-12T09:36:04;3.42;;;2.65;;
6392;SDS011;3229;42.674;23.282;2023-08-12T09:38:31;3.42;;;2.60;;
6392;SDS011;3229;42.674;23.282;2023-08-12T09:41:00;4.03;;;3.13;;
6392;SDS011;3229;42.674;23.282;2023-08-12T09:43:27;3.67;;;2.92;;
6392;SDS011;3229;42.674;23.282;2023-08-12T09:45:55;3.20;;;2.90;;
6392;SDS011;3229;42.674;23.282;2023-08-12T09:48:24;3.25;;;2.67;;
6392;SDS011;3229;42.674;23.282;2023-08-12T09:50:51;3.83;;;2.40;;
6392;SDS011;3229;42.674;23.282;2023-08-12T09:53:19;3.95;;;2.60;;
6392;SDS011;3229;42.674;23.282;2023-08-12T09:55:46;5.20;;;2.40;;
6392;SDS011;3229;42.674;23.282;2023-08-12T09:58:15;4.38;;;2.40;;
6392;SDS011;3229;42.674;23.282;2023-08-12T10:00:44;3.75;;;2.53;;
6392;SDS011;3229;42.674;23.282;2023-08-12T10:03:11;5.47;;;3.00;;
6392;SDS011;3229;42.674;23.282;2023-08-12T10:05:40;3.20;;;2.60;;
6392;SDS011;3229;42.674;23.282;2023-08-12T10:08:07;2.55;;;2.35;;
6392;SDS011;3229;42.674;23.282;2023-08-12T10:10:35;3.55;;;2.15;;
6392;SDS011;3229;42.674;23.282;2023-08-12T10:13:02;2.63;;;2.30;;
6392;SDS011;3229;42.674;23.282;2023-08-12T10:15:33;2.65;;;2.40;;
6392;SDS011;3229;42.674;23.282;2023-08-12T10:18:00;5.20;;;2.20;;
6392;SDS011;3229;42.674;23.282;2023-08-12T10:20:27;6.88;;;3.92;;
6392;SDS011;3229;42.674;23.282;2023-08-12T10:22:57;2.92;;;2.60;;
6392;SDS011;3229;42.674;23.282;2023-08-12T10:25:30;3.10;;;2.45;;
6392;SDS011;3229;42.674;23.282;2023-08-12T10:27:59;2.50;;;2.30;;
6392;SDS011;3229;42.674;23.282;2023-08-12T10:30:27;2.67;;;2.47;;
6392;SDS011;3229;42.674;23.282;2023-08-12T10:32:56;3.90;;;2.63;;
6392;SDS011;3229;42.674;23.282;2023-08-12T10:35:30;2.55;;;2.20;;
6392;SDS011;3229;42.674;23.282;2023-08-12T10:38:10;2.45;;;2.20;;
6392;SDS011;3229;42.674;23.282;2023-08-12T10:40:39;4.68;;;2.88;;
6392;SDS011;3229;42.674;23.282;2023-08-12T10:43:06;3.13;;;2.70;;
6392;SDS011;3229;42.674;23.282;2023-08-12T10:45:43;2.70;;;2.50;;
6392;SDS011;3229;42.674;23.282;2023-08-12T10:48:21;2.50;;;2.30;;
6392;SDS011;3229;42.674;23.282;2023-08-12T10:50:53;2.13;;;2.03;;
6392;SDS011;3229;42.674;23.282;2023-08-12T10:53:24;3.88;;;2.35;;
6392;SDS011;3229;42.674;23.282;2023-08-12T10:55:56;2.67;;;2.42;;
6392;SDS011;3229;42.674;23.282;2023-08-12T10:58:24;2.38;;;2.17;;
6392;SDS011;3229;42.674;23.282;2023-08-12T11:00:53;2.70;;;2.50;;
6392;SDS011;3229;42.674;23.282;2023-08-12T11:03:22;2.97;;;2.30;;
6392;SDS011;3229;42.674;23.282;2023-08-12T11:05:49;4.43;;;2.80;;
6392;SDS011;3229;42.674;23.282;2023-08-12T11:08:20;2.60;;;2.25;;
6392;SDS011;3229;42.674;23.282;2023-08-12T11:10:52;2.50;;;2.30;;
6392;SDS011;3229;42.674;23.282;2023-08-12T11:13:20;3.78;;;2.60;;
6392;SDS011;3229;42.674;23.282;2023-08-12T11:15:47;2.65;;;2.45;;
6392;SDS011;3229;42.674;23.282;2023-08-12T11:18:15;2.22;;;2.03;;
6392;SDS011;3229;42.674;23.282;2023-08-12T11:20:45;2.72;;;2.53;;
6392;SDS011;3229;42.674;23.282;2023-08-12T11:23:13;2.50;;;2.30;;
6392;SDS011;3229;42.674;23.282;2023-08-12T11:25:42;3.38;;;2.13;;
6392;SDS011;3229;42.674;23.282;2023-08-12T11:28:09;4.22;;;2.20;;
6392;SDS011;3229;42.674;23.282;2023-08-12T11:30:36;4.95;;;2.58;;
6392;SDS011;3229;42.674;23.282;2023-08-12T11:33:06;2.13;;;2.03;;
6392;SDS011;3229;42.674;23.282;2023-08-12T11:35:33;3.47;;;2.17;;
6392;SDS011;3229;42.674;23.282;2023-08-12T11:38:03;2.33;;;2.05;;
6392;SDS011;3229;42.674;23.282;2023-08-12T11:40:31;2.25;;;2.05;;
6392;SDS011;3229;42.674;23.282;2023-08-12T11:42:58;3.55;;;2.00;;
6392;SDS011;3229;42.674;23.282;2023-08-12T11:45:26;3.25;;;2.00;;
6392;SDS011;3229;42.674;23.282;2023-08-12T11:47:53;3.80;;;2.20;;
6392;SDS011;3229;42.674;23.282;2023-08-12T11:50:21;2.13;;;2.03;;
6392;SDS011;3229;42.674;23.282;2023-08-12T11:52:50;2.22;;;2.03;;
6392;SDS011;3229;42.674;23.282;2023-08-12T11:55:19;2.25;;;2.05;;
6392;SDS011;3229;42.674;23.282;2023-08-12T11:57:47;2.53;;;1.90;;
6392;SDS011;3229;42.674;23.282;2023-08-12T12:00:13;1.90;;;1.73;;
6392;SDS011;3229;42.674;23.282;2023-08-12T12:02:45;2.08;;;1.88;;
6392;SDS011;3229;42.674;23.282;2023-08-12T12:05:15;4.05;;;1.90;;
6392;SDS011;3229;42.674;23.282;2023-08-12T12:07:42;3.45;;;2.30;;
6392;SDS011;3229;42.674;23.282;2023-08-12T12:10:12;2.80;;;2.50;;
6392;SDS011;3229;42.674;23.282;2023-08-12T12:12:43;3.88;;;2.60;;
6392;SDS011;3229;42.674;23.282;2023-08-12T12:15:12;1.92;;;1.83;;
6392;SDS011;3229;42.674;23.282;2023-08-12T12:17:40;1.85;;;1.75;;
6392;SDS011;3229;42.674;23.282;2023-08-12T12:20:07;1.77;;;1.67;;
6392;SDS011;3229;42.674;23.282;2023-08-12T12:22:36;2.63;;;1.77;;
6392;SDS011;3229;42.674;23.282;2023-08-12T12:25:07;1.98;;;1.88;;
6392;SDS011;3229;42.674;23.282;2023-08-12T12:27:36;3.03;;;1.90;;
6392;SDS011;3229;42.674;23.282;2023-08-12T12:30:05;3.58;;;2.13;;
6392;SDS011;3229;42.674;23.282;2023-08-12T12:32:34;2.35;;;2.05;;
6392;SDS011;3229;42.674;23.282;2023-08-12T12:35:01;2.33;;;2.13;;
6392;SDS011;3229;42.674;23.282;2023-08-12T12:37:28;2.42;;;2.20;;
6392;SDS011;3229;42.674;23.282;2023-08-12T12:39:55;2.40;;;2.20;;
6392;SDS011;3229;42.674;23.282;2023-08-12T12:42:22;2.40;;;2.20;;
6392;SDS011;3229;42.674;23.282;2023-08-12T12:44:49;4.90;;;2.42;;
6392;SDS011;3229;42.674;23.282;2023-08-12T12:47:17;3.20;;;2.20;;
6392;SDS011;3229;42.674;23.282;2023-08-12T12:49:46;6.45;;;2.58;;
6392;SDS011;3229;42.674;23.282;2023-08-12T12:52:13;2.83;;;2.63;;
6392;SDS011;3229;42.674;23.282;2023-08-12T12:54:39;2.42;;;2.22;;
6392;SDS011;3229;42.674;23.282;2023-08-12T12:57:06;3.25;;;2.20;;
6392;SDS011;3229;42.674;23.282;2023-08-12T12:59:33;2.78;;;2.40;;
6392;SDS011;3229;42.674;23.282;2023-08-12T13:02:00;3.63;;;2.17;;
6392;SDS011;3229;42.674;23.282;2023-08-12T13:04:28;2.45;;;2.30;;
6392;SDS011;3229;42.674;23.282;2023-08-12T13:06:55;3.22;;;2.13;;
6392;SDS011;3229;42.674;23.282;2023-08-12T13:09:22;2.00;;;1.77;;
6392;SDS011;3229;42.674;23.282;2023-08-12T13:11:48;2.20;;;2.00;;
6392;SDS011;3229;42.674;23.282;2023-08-12T13:14:15;6.22;;;2.30;;
6392;SDS011;3229;42.674;23.282;2023-08-12T13:16:44;2.08;;;1.98;;
6392;SDS011;3229;42.674;23.282;2023-08-12T13:19:11;2.45;;;1.92;;
6392;SDS011;3229;42.674;23.282;2023-08-12T13:21:39;2.17;;;1.80;;
6392;SDS011;3229;42.674;23.282;2023-08-12T13:24:06;2.05;;;1.80;;
6392;SDS011;3229;42.674;23.282;2023-08-12T13:26:33;2.25;;;2.03;;
6392;SDS011;3229;42.674;23.282;2023-08-12T13:29:00;3.85;;;2.35;;
6392;SDS011;3229;42.674;23.282;2023-08-12T13:31:26;3.13;;;2.00;;
6392;SDS011;3229;42.674;23.282;2023-08-12T13:33:53;3.38;;;2.30;;
6392;SDS011;3229;42.674;23.282;2023-08-12T13:36:20;2.83;;;2.10;;
6392;SDS011;3229;42.674;23.282;2023-08-12T13:38:48;1.90;;;1.80;;
6392;SDS011;3229;42.674;23.282;2023-08-12T13:41:15;2.15;;;2.05;;
6392;SDS011;3229;42.674;23.282;2023-08-12T13:43:42;2.08;;;1.90;;
6392;SDS011;3229;42.674;23.282;2023-08-12T13:46:09;3.25;;;2.03;;
6392;SDS011;3229;42.674;23.282;2023-08-12T13:48:36;1.90;;;1.80;;
6392;SDS011;3229;42.674;23.282;2023-08-12T13:51:02;2.00;;;1.80;;
6392;SDS011;3229;42.674;23.282;2023-08-12T13:53:29;4.63;;;2.10;;
6392;SDS011;3229;42.674;23.282;2023-08-12T13:55:57;2.53;;;2.03;;
6392;SDS011;3229;42.674;23.282;2023-08-12T13:58:24;5.10;;;1.88;;
6392;SDS011;3229;42.674;23.282;2023-08-12T14:00:51;2.30;;;2.10;;
6392;SDS011;3229;42.674;23.282;2023-08-12T14:03:18;4.90;;;2.30;;
6392;SDS011;3229;42.674;23.282;2023-08-12T14:05:44;2.90;;;1.80;;
6392;SDS011;3229;42.674;23.282;2023-08-12T14:08:11;4.88;;;1.83;;
6392;SDS011;3229;42.674;23.282;2023-08-12T14:10:38;4.43;;;2.00;;
6392;SDS011;3229;42.674;23.282;2023-08-12T14:13:06;2.35;;;2.15;;
6392;SDS011;3229;42.674;23.282;2023-08-12T14:15:33;3.65;;;2.35;;
6392;SDS011;3229;42.674;23.282;2023-08-12T14:18:00;3.40;;;1.98;;
6392;SDS011;3229;42.674;23.282;2023-08-12T14:20:27;3.05;;;2.42;;
6392;SDS011;3229;42.674;23.282;2023-08-12T14:22:54;3.20;;;2.13;;
6392;SDS011;3229;42.674;23.282;2023-08-12T14:25:21;2.30;;;1.98;;
6392;SDS011;3229;42.674;23.282;2023-08-12T14:27:47;4.35;;;2.15;;
6392;SDS011;3229;42.674;23.282;2023-08-12T14:30:17;3.97;;;2.25;;
6392;SDS011;3229;42.674;23.282;2023-08-12T14:32:44;4.25;;;1.90;;
6392;SDS011;3229;42.674;23.282;2023-08-12T14:35:11;1.80;;;1.70;;
6392;SDS011;3229;42.674;23.282;2023-08-12T14:37:38;2.05;;;1.92;;
6392;SDS011;3229;42.674;23.282;2023-08-12T14:40:05;2.22;;;2.10;;
6392;SDS011;3229;42.674;23.282;2023-08-12T14:42:33;4.63;;;3.65;;
6392;SDS011;3229;42.674;23.282;2023-08-12T14:45:00;2.30;;;2.10;;
6392;SDS011;3229;42.674;23.282;2023-08-12T14:47:28;3.05;;;2.42;;
6392;SDS011;3229;42.674;23.282;2023-08-12T14:49:55;2.47;;;2.28;;
6392;SDS011;3229;42.674;23.282;2023-08-12T14:52:22;3.83;;;2.13;;
6392;SDS011;3229;42.674;23.282;2023-08-12T14:54:49;3.10;;;2.20;;
6392;SDS011;3229;42.674;23.282;2023-08-12T14:57:15;2.05;;;1.80;;
6392;SDS011;3229;42.674;23.282;2023-08-12T14:59:42;2.38;;;2.17;;
6392;SDS011;3229;42.674;23.282;2023-08-12T15:02:11;1.90;;;1.80;;